createdAt,value
2022-11-05T00:02:27.527Z,21.83
2022-11-05T00:05:12.932Z,23.03
2022-11-05T00:08:00.052Z,20.92
2022-11-05T00:10:29.320Z,23.02
2022-11-05T00:13:17.450Z,20.50
2022-11-05T00:16:02.490Z,20.60
2022-11-05T00:18:30.348Z,21.05
2022-11-05T00:20:58.154Z,24.40
2022-11-05T00:23:43.519Z,21.23
2022-11-05T00:26:12.412Z,20.52
2022-11-05T00:28:43.906Z,20.90
2022-11-05T00:31:13.882Z,21.33
2022-11-05T00:33:43.668Z,21.90
2022-11-05T00:36:12.271Z,21.87
2022-11-05T00:38:40.093Z,20.77
2022-11-05T00:41:07.855Z,22.60
2022-11-05T00:43:53.291Z,23.63
2022-11-05T00:46:23.327Z,22.70
2022-11-05T00:49:08.447Z,23.40
2022-11-05T00:51:36.200Z,24.33
2022-11-05T00:54:04.019Z,24.13
2022-11-05T00:56:31.749Z,23.65
2022-11-05T00:58:59.473Z,22.85
2022-11-05T01:01:28.685Z,24.10
2022-11-05T01:03:56.575Z,24.95
2022-11-05T01:06:25.178Z,26.00
2022-11-05T01:08:52.894Z,24.15
2022-11-05T01:11:33.980Z,23.15
2022-11-05T01:14:02.575Z,26.70
2022-11-05T01:16:31.855Z,21.55
2022-11-05T01:18:59.669Z,24.27
2022-11-05T01:21:27.422Z,21.88
2022-11-05T01:23:55.277Z,24.88
2022-11-05T01:26:23.215Z,22.65
2022-11-05T01:28:51.961Z,26.67
2022-11-05T01:31:19.786Z,24.50
2022-11-05T01:33:48.949Z,24.47
2022-11-05T01:36:16.958Z,27.17
2022-11-05T01:38:44.720Z,24.83
2022-11-05T01:41:12.581Z,23.45
2022-11-05T01:43:49.092Z,27.80
2022-11-05T01:46:19.551Z,26.50
2022-11-05T01:48:49.707Z,26.55
2022-11-05T01:51:19.609Z,25.38
2022-11-05T01:53:50.284Z,22.92
2022-11-05T01:56:19.723Z,22.60
2022-11-05T01:58:51.827Z,23.33
2022-11-05T02:01:20.124Z,27.77
2022-11-05T02:03:50.460Z,23.05
2022-11-05T02:06:18.660Z,22.95
2022-11-05T02:08:55.258Z,23.40
2022-11-05T02:11:23.136Z,22.33
2022-11-05T02:13:51.860Z,22.52
2022-11-05T02:16:29.029Z,23.65
2022-11-05T02:19:02.159Z,23.80
2022-11-05T02:22:00.239Z,22.40
2022-11-05T02:24:54.684Z,20.58
2022-11-05T02:27:34.580Z,23.73
2022-11-05T02:30:08.567Z,21.15
2022-11-05T02:32:59.445Z,22.90
2022-11-05T02:35:36.967Z,18.75
2022-11-05T02:38:08.507Z,20.30
2022-11-05T02:40:42.001Z,17.92
2022-11-05T02:43:16.153Z,19.27
2022-11-05T02:45:49.382Z,18.10
2022-11-05T04:13:27.828Z,13.57
2022-11-05T04:16:14.483Z,13.03
2022-11-05T04:18:42.537Z,15.10
2022-11-05T04:21:28.675Z,13.57
2022-11-05T04:24:11.681Z,13.03
2022-11-05T04:26:40.801Z,12.33
2022-11-05T04:29:27.283Z,13.70
2022-11-05T04:31:55.485Z,15.50
2022-11-05T04:34:23.526Z,13.07
2022-11-05T04:36:51.655Z,13.47
2022-11-05T04:39:20.114Z,14.30
2022-11-05T04:41:48.933Z,18.13
2022-11-05T04:44:18.166Z,12.63
2022-11-05T04:46:45.905Z,14.10
2022-11-05T04:49:13.749Z,16.57
2022-11-05T04:51:41.487Z,16.90
2022-11-05T04:54:09.217Z,20.10
2022-11-05T04:56:36.892Z,15.10
2022-11-05T04:59:04.604Z,16.40
2022-11-05T05:01:33.854Z,16.90
2022-11-05T05:04:01.657Z,13.87
2022-11-05T05:06:29.496Z,15.17
2022-11-05T05:08:57.230Z,21.67
2022-11-05T05:11:24.987Z,18.80
2022-11-05T05:13:52.752Z,13.30
2022-11-05T05:16:22.165Z,22.10
2022-11-05T05:18:51.808Z,18.07
2022-11-05T05:21:38.729Z,20.93
2022-11-05T05:24:08.686Z,16.87
2022-11-05T05:26:36.627Z,19.53
2022-11-05T05:29:04.962Z,14.23
2022-11-05T05:31:32.810Z,16.10
2022-11-05T05:34:02.063Z,16.40
2022-11-05T05:36:29.923Z,15.27
2022-11-05T05:38:57.745Z,17.73
2022-11-05T05:41:25.823Z,16.87
2022-11-05T05:43:53.623Z,16.27
2022-11-05T05:46:21.370Z,17.77
2022-11-05T05:48:50.113Z,16.97
2022-11-05T05:51:19.930Z,16.87
2022-11-05T05:53:47.944Z,17.87
2022-11-05T05:56:19.160Z,17.33
2022-11-05T05:58:47.114Z,18.23
2022-11-05T06:01:19.336Z,21.30
2022-11-05T06:03:48.491Z,21.00
2022-11-05T06:06:19.598Z,18.63
2022-11-05T06:08:49.446Z,21.80
2022-11-05T06:11:17.393Z,21.67
2022-11-05T06:13:45.594Z,22.30
2022-11-05T06:16:13.386Z,24.37
2022-11-05T06:18:41.264Z,17.30
2022-11-05T06:21:10.652Z,21.10
2022-11-05T06:23:40.202Z,23.43
2022-11-05T06:26:11.131Z,25.73
2022-11-05T06:28:39.137Z,26.63
2022-11-05T06:31:06.942Z,24.97
2022-11-05T06:33:34.713Z,27.77
2022-11-05T06:36:03.112Z,28.87
2022-11-05T06:38:33.489Z,28.90
2022-11-05T06:41:05.825Z,27.87
2022-11-05T06:43:38.481Z,28.30
2022-11-05T06:46:06.538Z,28.03
2022-11-05T06:48:34.455Z,27.67
2022-11-05T06:51:02.304Z,24.30
2022-11-05T06:53:30.478Z,31.20
2022-11-05T06:55:58.369Z,25.10
2022-11-05T06:58:26.753Z,26.70
2022-11-05T07:00:56.107Z,27.07
2022-11-05T07:03:23.949Z,26.27
2022-11-05T07:05:52.173Z,26.33
2022-11-05T07:08:20.013Z,27.67
2022-11-05T07:10:47.803Z,28.53
2022-11-05T07:13:16.283Z,33.93
2022-11-05T07:15:44.442Z,27.73
2022-11-05T07:18:13.672Z,28.17
2022-11-05T07:20:41.540Z,26.17
2022-11-05T07:23:12.289Z,24.53
2022-11-05T07:25:40.944Z,26.70
2022-11-05T07:28:08.999Z,22.17
2022-11-05T07:30:37.380Z,23.43
2022-11-05T07:33:05.477Z,22.90
2022-11-05T07:35:34.800Z,26.37
2022-11-05T07:38:02.755Z,23.57
2022-11-05T07:40:31.138Z,24.20
2022-11-05T07:43:00.553Z,25.50
2022-11-05T07:45:30.222Z,22.33
2022-11-05T07:48:00.368Z,21.73
2022-11-05T07:50:29.966Z,24.07
2022-11-05T07:53:02.609Z,23.87
2022-11-05T07:55:30.874Z,23.97
2022-11-05T07:57:58.688Z,21.60
2022-11-05T08:00:27.722Z,22.50
2022-11-05T08:03:07.143Z,21.77
2022-11-05T08:05:37.630Z,28.30
2022-11-05T08:08:07.554Z,23.23
2022-11-05T08:10:36.169Z,25.90
2022-11-05T08:13:04.236Z,23.83
2022-11-05T08:15:32.658Z,22.83
2022-11-05T08:18:00.774Z,23.80
2022-11-05T08:20:29.006Z,22.30
2022-11-05T08:22:56.937Z,18.73
2022-11-05T08:25:26.666Z,22.53
2022-11-05T08:27:58.361Z,24.00
2022-11-05T08:30:26.863Z,27.70
2022-11-05T08:32:58.142Z,26.67
2022-11-05T08:35:26.040Z,22.50
